sensor_id;sensor_type;location;lat;lon;timestamp;temperature;humidity
23160;DHT22;11748;50.844;4.396;2023-03-03T00:01:07;5.00;99.90
23160;DHT22;11748;50.844;4.396;2023-03-03T00:03:33;5.00;99.90
23160;DHT22;11748;50.844;4.396;2023-03-03T00:05:59;5.00;99.90
23160;DHT22;11748;50.844;4.396;2023-03-03T00:08:25;4.90;99.90
23160;DHT22;11748;50.844;4.396;2023-03-03T00:10:51;4.80;99.90
23160;DHT22;11748;50.844;4.396;2023-03-03T00:13:24;4.80;99.90
23160;DHT22;11748;50.844;4.396;2023-03-03T00:15:51;4.80;99.90
23160;DHT22;11748;50.844;4.396;2023-03-03T00:18:20;4.80;99.90
23160;DHT22;11748;50.844;4.396;2023-03-03T00:20:59;4.70;99.90
23160;DHT22;11748;50.844;4.396;2023-03-03T00:23:39;4.70;99.90
23160;DHT22;11748;50.844;4.396;2023-03-03T00:26:39;4.70;99.90
23160;DHT22;11748;50.844;4.396;2023-03-03T00:32:23;4.50;99.90
23160;DHT22;11748;50.844;4.396;2023-03-03T00:34:51;4.50;99.90
23160;DHT22;11748;50.844;4.396;2023-03-03T00:37:34;4.50;99.90
23160;DHT22;11748;50.844;4.396;2023-03-03T00:42:37;4.40;99.90
23160;DHT22;11748;50.844;4.396;2023-03-03T00:45:27;4.60;99.90
23160;DHT22;11748;50.844;4.396;2023-03-03T00:47:55;4.70;99.90
23160;DHT22;11748;50.844;4.396;2023-03-03T00:50:34;4.70;99.90
23160;DHT22;11748;50.844;4.396;2023-03-03T00:53:14;4.60;99.90
23160;DHT22;11748;50.844;4.396;2023-03-03T00:55:44;4.60;99.90
23160;DHT22;11748;50.844;4.396;2023-03-03T00:58:11;4.50;99.90
23160;DHT22;11748;50.844;4.396;2023-03-03T01:00:37;4.50;99.90
23160;DHT22;11748;50.844;4.396;2023-03-03T01:03:06;4.50;99.90
23160;DHT22;11748;50.844;4.396;2023-03-03T01:05:32;4.40;99.90
23160;DHT22;11748;50.844;4.396;2023-03-03T01:07:59;4.10;99.90
23160;DHT22;11748;50.844;4.396;2023-03-03T01:10:27;4.00;99.90
23160;DHT22;11748;50.844;4.396;2023-03-03T01:12:54;3.90;99.90
23160;DHT22;11748;50.844;4.396;2023-03-03T01:15:20;3.90;99.90
23160;DHT22;11748;50.844;4.396;2023-03-03T01:17:46;3.90;99.90
23160;DHT22;11748;50.844;4.396;2023-03-03T01:20:13;4.00;99.90
23160;DHT22;11748;50.844;4.396;2023-03-03T01:22:39;4.10;99.90
23160;DHT22;11748;50.844;4.396;2023-03-03T01:25:07;4.00;99.90
23160;DHT22;11748;50.844;4.396;2023-03-03T01:27:34;3.90;99.90
23160;DHT22;11748;50.844;4.396;2023-03-03T01:30:03;3.90;99.90
23160;DHT22;11748;50.844;4.396;2023-03-03T01:32:29;3.90;99.90
23160;DHT22;11748;50.844;4.396;2023-03-03T01:34:54;3.70;99.90
23160;DHT22;11748;50.844;4.396;2023-03-03T01:37:20;3.80;99.90
23160;DHT22;11748;50.844;4.396;2023-03-03T01:39:51;4.00;99.90
23160;DHT22;11748;50.844;4.396;2023-03-03T01:42:17;3.90;99.90
23160;DHT22;11748;50.844;4.396;2023-03-03T01:44:44;3.90;99.90
23160;DHT22;11748;50.844;4.396;2023-03-03T01:49:55;4.00;99.90
23160;DHT22;11748;50.844;4.396;2023-03-03T01:52:45;4.20;99.90
23160;DHT22;11748;50.844;4.396;2023-03-03T01:55:23;4.10;99.90
23160;DHT22;11748;50.844;4.396;2023-03-03T01:58:03;4.00;99.90
23160;DHT22;11748;50.844;4.396;2023-03-03T02:00:30;4.00;99.90
23160;DHT22;11748;50.844;4.396;2023-03-03T02:02:57;3.90;99.90
23160;DHT22;11748;50.844;4.396;2023-03-03T02:05:23;4.10;99.90
23160;DHT22;11748;50.844;4.396;2023-03-03T02:07:49;4.10;99.90
23160;DHT22;11748;50.844;4.396;2023-03-03T02:10:18;4.00;99.90
23160;DHT22;11748;50.844;4.396;2023-03-03T02:12:53;4.00;99.90
23160;DHT22;11748;50.844;4.396;2023-03-03T02:15:27;4.00;99.90
23160;DHT22;11748;50.844;4.396;2023-03-03T02:17:59;3.90;99.90
23160;DHT22;11748;50.844;4.396;2023-03-03T02:23:14;4.20;99.90
23160;DHT22;11748;50.844;4.396;2023-03-03T02:28:20;4.20;99.90
23160;DHT22;11748;50.844;4.396;2023-03-03T02:30:47;4.40;99.90
23160;DHT22;11748;50.844;4.396;2023-03-03T02:33:12;4.40;99.90
23160;DHT22;11748;50.844;4.396;2023-03-03T02:35:39;4.50;99.90
23160;DHT22;11748;50.844;4.396;2023-03-03T02:38:26;4.60;99.90
23160;DHT22;11748;50.844;4.396;2023-03-03T02:41:10;4.70;99.90
23160;DHT22;11748;50.844;4.396;2023-03-03T02:44:00;4.60;99.90
23160;DHT22;11748;50.844;4.396;2023-03-03T02:46:28;4.60;99.90
23160;DHT22;11748;50.844;4.396;2023-03-03T02:48:56;4.50;99.90
23160;DHT22;11748;50.844;4.396;2023-03-03T02:51:22;4.50;99.90
23160;DHT22;11748;50.844;4.396;2023-03-03T02:53:47;4.50;99.90
23160;DHT22;11748;50.844;4.396;2023-03-03T02:56:13;4.40;99.90
23160;DHT22;11748;50.844;4.396;2023-03-03T02:58:39;4.20;99.90
23160;DHT22;11748;50.844;4.396;2023-03-03T03:01:05;4.10;99.90
23160;DHT22;11748;50.844;4.396;2023-03-03T03:03:31;4.00;99.90
23160;DHT22;11748;50.844;4.396;2023-03-03T03:05:56;4.20;99.90
23160;DHT22;11748;50.844;4.396;2023-03-03T03:08:22;4.40;99.90
23160;DHT22;11748;50.844;4.396;2023-03-03T03:10:48;4.30;99.90
23160;DHT22;11748;50.844;4.396;2023-03-03T03:13:14;4.40;99.90
23160;DHT22;11748;50.844;4.396;2023-03-03T03:15:40;4.50;99.90
23160;DHT22;11748;50.844;4.396;2023-03-03T03:18:05;4.40;99.90
23160;DHT22;11748;50.844;4.396;2023-03-03T03:20:36;4.50;99.90
23160;DHT22;11748;50.844;4.396;2023-03-03T03:23:02;4.50;99.90
23160;DHT22;11748;50.844;4.396;2023-03-03T03:25:28;4.50;99.90
23160;DHT22;11748;50.844;4.396;2023-03-03T03:27:53;4.50;99.90
23160;DHT22;11748;50.844;4.396;2023-03-03T03:30:19;4.30;99.90
23160;DHT22;11748;50.844;4.396;2023-03-03T03:32:45;4.40;99.90
23160;DHT22;11748;50.844;4.396;2023-03-03T03:35:11;4.50;99.90
23160;DHT22;11748;50.844;4.396;2023-03-03T03:37:38;4.60;99.90
23160;DHT22;11748;50.844;4.396;2023-03-03T03:40:04;4.50;99.90
23160;DHT22;11748;50.844;4.396;2023-03-03T03:42:30;4.50;99.90
23160;DHT22;11748;50.844;4.396;2023-03-03T03:44:56;4.50;99.90
23160;DHT22;11748;50.844;4.396;2023-03-03T03:47:21;4.30;99.90
23160;DHT22;11748;50.844;4.396;2023-03-03T03:49:47;4.30;99.90
23160;DHT22;11748;50.844;4.396;2023-03-03T03:52:13;4.10;99.90
23160;DHT22;11748;50.844;4.396;2023-03-03T03:54:38;4.30;99.90
23160;DHT22;11748;50.844;4.396;2023-03-03T03:57:04;4.20;99.90
23160;DHT22;11748;50.844;4.396;2023-03-03T03:59:30;4.20;99.90
23160;DHT22;11748;50.844;4.396;2023-03-03T04:01:56;4.40;99.90
23160;DHT22;11748;50.844;4.396;2023-03-03T04:04:21;4.20;99.90
23160;DHT22;11748;50.844;4.396;2023-03-03T04:06:47;4.00;99.90
23160;DHT22;11748;50.844;4.396;2023-03-03T04:09:14;4.00;99.90
23160;DHT22;11748;50.844;4.396;2023-03-03T04:11:39;4.20;99.90
23160;DHT22;11748;50.844;4.396;2023-03-03T04:14:05;4.30;99.90
23160;DHT22;11748;50.844;4.396;2023-03-03T04:16:31;4.40;99.90
23160;DHT22;11748;50.844;4.396;2023-03-03T04:18:57;4.50;99.90
23160;DHT22;11748;50.844;4.396;2023-03-03T04:21:23;4.50;99.90
23160;DHT22;11748;50.844;4.396;2023-03-03T04:23:49;4.50;99.90
23160;DHT22;11748;50.844;4.396;2023-03-03T04:26:16;4.50;99.90
23160;DHT22;11748;50.844;4.396;2023-03-03T04:28:42;4.50;99.90
23160;DHT22;11748;50.844;4.396;2023-03-03T04:31:08;4.20;99.90
23160;DHT22;11748;50.844;4.396;2023-03-03T04:33:33;3.90;99.90
23160;DHT22;11748;50.844;4.396;2023-03-03T04:35:59;4.00;99.90
23160;DHT22;11748;50.844;4.396;2023-03-03T04:38:25;4.10;99.90
23160;DHT22;11748;50.844;4.396;2023-03-03T04:40:51;4.20;99.90
23160;DHT22;11748;50.844;4.396;2023-03-03T04:43:16;4.20;99.90
23160;DHT22;11748;50.844;4.396;2023-03-03T04:45:43;4.20;99.90
23160;DHT22;11748;50.844;4.396;2023-03-03T04:48:08;4.20;99.90
23160;DHT22;11748;50.844;4.396;2023-03-03T04:50:34;4.10;99.90
23160;DHT22;11748;50.844;4.396;2023-03-03T04:53:00;4.10;99.90
23160;DHT22;11748;50.844;4.396;2023-03-03T04:55:25;4.20;99.90
23160;DHT22;11748;50.844;4.396;2023-03-03T04:57:52;4.20;99.90
23160;DHT22;11748;50.844;4.396;2023-03-03T05:00:18;4.10;99.90
23160;DHT22;11748;50.844;4.396;2023-03-03T05:02:46;4.20;99.90
23160;DHT22;11748;50.844;4.396;2023-03-03T05:05:12;4.20;99.90
23160;DHT22;11748;50.844;4.396;2023-03-03T05:07:38;4.20;99.90
23160;DHT22;11748;50.844;4.396;2023-03-03T05:10:05;4.00;99.90
23160;DHT22;11748;50.844;4.396;2023-03-03T05:12:31;4.00;99.90
23160;DHT22;11748;50.844;4.396;2023-03-03T05:14:57;4.00;99.90
23160;DHT22;11748;50.844;4.396;2023-03-03T05:17:22;4.00;99.90
23160;DHT22;11748;50.844;4.396;2023-03-03T05:19:48;3.80;99.90
23160;DHT22;11748;50.844;4.396;2023-03-03T05:22:14;3.80;99.90
23160;DHT22;11748;50.844;4.396;2023-03-03T05:24:39;3.90;99.90
23160;DHT22;11748;50.844;4.396;2023-03-03T05:27:07;3.90;99.90
23160;DHT22;11748;50.844;4.396;2023-03-03T05:29:33;3.80;99.90
23160;DHT22;11748;50.844;4.396;2023-03-03T05:31:59;3.90;99.90
23160;DHT22;11748;50.844;4.396;2023-03-03T05:34:26;3.90;99.90
23160;DHT22;11748;50.844;4.396;2023-03-03T05:36:51;3.90;99.90
23160;DHT22;11748;50.844;4.396;2023-03-03T05:39:17;3.80;99.90
23160;DHT22;11748;50.844;4.396;2023-03-03T05:41:43;3.80;99.90
23160;DHT22;11748;50.844;4.396;2023-03-03T05:44:09;3.70;99.90
23160;DHT22;11748;50.844;4.396;2023-03-03T05:46:35;3.60;99.90
23160;DHT22;11748;50.844;4.396;2023-03-03T05:49:01;3.60;99.90
23160;DHT22;11748;50.844;4.396;2023-03-03T05:51:28;3.60;99.90
23160;DHT22;11748;50.844;4.396;2023-03-03T05:53:53;3.60;99.90
23160;DHT22;11748;50.844;4.396;2023-03-03T05:56:19;3.50;99.90
23160;DHT22;11748;50.844;4.396;2023-03-03T05:58:45;3.40;99.90
23160;DHT22;11748;50.844;4.396;2023-03-03T06:01:11;3.40;99.90
23160;DHT22;11748;50.844;4.396;2023-03-03T06:03:36;3.40;99.90
23160;DHT22;11748;50.844;4.396;2023-03-03T06:06:02;3.40;99.90
23160;DHT22;11748;50.844;4.396;2023-03-03T06:08:28;3.40;99.90
23160;DHT22;11748;50.844;4.396;2023-03-03T06:10:56;3.50;99.90
23160;DHT22;11748;50.844;4.396;2023-03-03T06:13:22;3.50;99.90
23160;DHT22;11748;50.844;4.396;2023-03-03T06:15:48;3.30;99.90
23160;DHT22;11748;50.844;4.396;2023-03-03T06:18:14;3.40;99.90
23160;DHT22;11748;50.844;4.396;2023-03-03T06:20:39;3.40;99.90
23160;DHT22;11748;50.844;4.396;2023-03-03T06:23:05;3.50;99.90
23160;DHT22;11748;50.844;4.396;2023-03-03T06:25:31;3.50;99.90
23160;DHT22;11748;50.844;4.396;2023-03-03T06:28:00;3.50;99.90
23160;DHT22;11748;50.844;4.396;2023-03-03T06:30:26;3.50;99.90
23160;DHT22;11748;50.844;4.396;2023-03-03T06:32:53;3.60;99.90
23160;DHT22;11748;50.844;4.396;2023-03-03T06:35:19;3.70;99.90
23160;DHT22;11748;50.844;4.396;2023-03-03T06:37:45;3.70;99.90
23160;DHT22;11748;50.844;4.396;2023-03-03T06:40:11;3.70;99.90
23160;DHT22;11748;50.844;4.396;2023-03-03T06:42:37;3.70;99.90
23160;DHT22;11748;50.844;4.396;2023-03-03T06:45:03;3.70;99.90
23160;DHT22;11748;50.844;4.396;2023-03-03T06:47:29;3.70;99.90
23160;DHT22;11748;50.844;4.396;2023-03-03T06:49:56;3.80;99.90
23160;DHT22;11748;50.844;4.396;2023-03-03T06:52:25;3.80;99.90
23160;DHT22;11748;50.844;4.396;2023-03-03T06:54:59;3.80;99.90
23160;DHT22;11748;50.844;4.396;2023-03-03T06:57:32;3.70;99.90
23160;DHT22;11748;50.844;4.396;2023-03-03T07:00:19;3.60;99.90
23160;DHT22;11748;50.844;4.396;2023-03-03T07:05:37;3.60;99.90
23160;DHT22;11748;50.844;4.396;2023-03-03T07:08:11;3.60;99.90
23160;DHT22;11748;50.844;4.396;2023-03-03T07:10:38;3.60;99.90
23160;DHT22;11748;50.844;4.396;2023-03-03T07:15:47;3.50;99.90
23160;DHT22;11748;50.844;4.396;2023-03-03T07:20:54;3.20;99.90
23160;DHT22;11748;50.844;4.396;2023-03-03T07:23:24;3.30;99.90
23160;DHT22;11748;50.844;4.396;2023-03-03T07:25:51;3.50;99.90
23160;DHT22;11748;50.844;4.396;2023-03-03T07:28:23;3.60;99.90
23160;DHT22;11748;50.844;4.396;2023-03-03T07:30:50;3.60;99.90
23160;DHT22;11748;50.844;4.396;2023-03-03T07:33:42;3.60;99.90
23160;DHT22;11748;50.844;4.396;2023-03-03T07:36:23;3.70;99.90
23160;DHT22;11748;50.844;4.396;2023-03-03T07:38:59;3.70;99.90
23160;DHT22;11748;50.844;4.396;2023-03-03T07:41:25;3.70;99.90
23160;DHT22;11748;50.844;4.396;2023-03-03T07:43:54;3.80;99.90
23160;DHT22;11748;50.844;4.396;2023-03-03T07:46:49;3.70;99.90
23160;DHT22;11748;50.844;4.396;2023-03-03T07:49:35;3.80;99.90
23160;DHT22;11748;50.844;4.396;2023-03-03T07:52:15;3.80;99.90
23160;DHT22;11748;50.844;4.396;2023-03-03T07:54:44;3.80;99.90
23160;DHT22;11748;50.844;4.396;2023-03-03T07:57:19;3.80;99.90
23160;DHT22;11748;50.844;4.396;2023-03-03T07:59:47;3.90;99.90
23160;DHT22;11748;50.844;4.396;2023-03-03T08:02:29;3.90;99.90
23160;DHT22;11748;50.844;4.396;2023-03-03T08:04:56;4.00;99.90
23160;DHT22;11748;50.844;4.396;2023-03-03T08:07:22;4.00;99.90
23160;DHT22;11748;50.844;4.396;2023-03-03T08:09:56;4.00;99.90
23160;DHT22;11748;50.844;4.396;2023-03-03T08:12:39;4.00;99.90
23160;DHT22;11748;50.844;4.396;2023-03-03T08:17:44;4.10;99.90
23160;DHT22;11748;50.844;4.396;2023-03-03T08:20:40;4.20;99.90
23160;DHT22;11748;50.844;4.396;2023-03-03T08:23:08;4.20;99.90
23160;DHT22;11748;50.844;4.396;2023-03-03T08:25:33;4.00;99.90
23160;DHT22;11748;50.844;4.396;2023-03-03T08:28:00;4.00;99.90
23160;DHT22;11748;50.844;4.396;2023-03-03T08:30:26;3.90;99.90
23160;DHT22;11748;50.844;4.396;2023-03-03T08:32:51;3.70;99.90
23160;DHT22;11748;50.844;4.396;2023-03-03T08:35:17;3.90;99.90
23160;DHT22;11748;50.844;4.396;2023-03-03T08:37:43;3.90;99.90
23160;DHT22;11748;50.844;4.396;2023-03-03T08:40:09;3.90;99.90
23160;DHT22;11748;50.844;4.396;2023-03-03T08:42:35;3.90;99.90
23160;DHT22;11748;50.844;4.396;2023-03-03T08:45:00;4.00;99.90
23160;DHT22;11748;50.844;4.396;2023-03-03T08:47:26;4.10;99.90
23160;DHT22;11748;50.844;4.396;2023-03-03T08:49:52;4.00;99.90
23160;DHT22;11748;50.844;4.396;2023-03-03T08:52:19;4.00;99.90
23160;DHT22;11748;50.844;4.396;2023-03-03T08:54:45;4.20;99.90
23160;DHT22;11748;50.844;4.396;2023-03-03T08:57:11;4.20;99.90
23160;DHT22;11748;50.844;4.396;2023-03-03T08:59:37;4.30;99.90
23160;DHT22;11748;50.844;4.396;2023-03-03T09:02:04;4.30;99.90
23160;DHT22;11748;50.844;4.396;2023-03-03T09:04:30;4.50;99.90
23160;DHT22;11748;50.844;4.396;2023-03-03T09:06:56;4.50;99.90
23160;DHT22;11748;50.844;4.396;2023-03-03T09:09:22;4.60;99.90
23160;DHT22;11748;50.844;4.396;2023-03-03T09:11:48;4.50;99.90
23160;DHT22;11748;50.844;4.396;2023-03-03T09:14:17;4.30;99.90
23160;DHT22;11748;50.844;4.396;2023-03-03T09:16:50;4.40;99.90
23160;DHT22;11748;50.844;4.396;2023-03-03T09:19:26;4.50;99.90
23160;DHT22;11748;50.844;4.396;2023-03-03T09:21:56;4.50;99.90
23160;DHT22;11748;50.844;4.396;2023-03-03T09:24:30;4.50;99.90
23160;DHT22;11748;50.844;4.396;2023-03-03T09:26:59;4.60;99.90
23160;DHT22;11748;50.844;4.396;2023-03-03T09:29:37;4.70;99.90
23160;DHT22;11748;50.844;4.396;2023-03-03T09:34:53;4.60;99.90
23160;DHT22;11748;50.844;4.396;2023-03-03T09:37:25;4.60;99.90
23160;DHT22;11748;50.844;4.396;2023-03-03T09:39:53;4.70;99.90
23160;DHT22;11748;50.844;4.396;2023-03-03T09:47:50;4.60;99.90
23160;DHT22;11748;50.844;4.396;2023-03-03T09:50:32;4.50;99.90
23160;DHT22;11748;50.844;4.396;2023-03-03T09:56:10;4.60;99.90
23160;DHT22;11748;50.844;4.396;2023-03-03T10:01:49;4.70;99.90
23160;DHT22;11748;50.844;4.396;2023-03-03T10:20:37;4.80;99.90
23160;DHT22;11748;50.844;4.396;2023-03-03T10:23:03;4.90;99.90
23160;DHT22;11748;50.844;4.396;2023-03-03T10:25:40;5.10;99.90
23160;DHT22;11748;50.844;4.396;2023-03-03T10:31:09;5.30;99.90
23160;DHT22;11748;50.844;4.396;2023-03-03T10:36:45;5.40;99.90
23160;DHT22;11748;50.844;4.396;2023-03-03T10:53:38;5.90;99.90
23160;DHT22;11748;50.844;4.396;2023-03-03T10:58:56;5.90;99.90
23160;DHT22;11748;50.844;4.396;2023-03-03T11:01:51;5.80;99.90
23160;DHT22;11748;50.844;4.396;2023-03-03T11:07:02;5.80;99.90
23160;DHT22;11748;50.844;4.396;2023-03-03T11:10:00;5.80;99.90
23160;DHT22;11748;50.844;4.396;2023-03-03T11:21:03;6.20;99.90
23160;DHT22;11748;50.844;4.396;2023-03-03T11:29:58;6.50;99.90
23160;DHT22;11748;50.844;4.396;2023-03-03T11:40:48;7.00;99.90
23160;DHT22;11748;50.844;4.396;2023-03-03T11:43:31;7.00;99.90
23160;DHT22;11748;50.844;4.396;2023-03-03T11:46:39;7.00;99.90
23160;DHT22;11748;50.844;4.396;2023-03-03T11:49:05;6.80;99.90
23160;DHT22;11748;50.844;4.396;2023-03-03T11:56:46;7.00;99.90
23160;DHT22;11748;50.844;4.396;2023-03-03T12:02:44;7.30;99.90
23160;DHT22;11748;50.844;4.396;2023-03-03T12:13:28;7.70;99.90
23160;DHT22;11748;50.844;4.396;2023-03-03T12:16:03;7.70;99.90
23160;DHT22;11748;50.844;4.396;2023-03-03T12:18:57;7.90;99.90
23160;DHT22;11748;50.844;4.396;2023-03-03T12:21:59;8.00;99.90
23160;DHT22;11748;50.844;4.396;2023-03-03T12:24:33;8.10;99.90
23160;DHT22;11748;50.844;4.396;2023-03-03T12:40:29;7.70;99.90
23160;DHT22;11748;50.844;4.396;2023-03-03T12:48:43;8.00;99.90
23160;DHT22;11748;50.844;4.396;2023-03-03T13:02:46;7.00;99.90
23160;DHT22;11748;50.844;4.396;2023-03-03T13:10:43;7.30;99.90
23160;DHT22;11748;50.844;4.396;2023-03-03T13:13:23;7.20;99.90
23160;DHT22;11748;50.844;4.396;2023-03-03T13:26:38;7.80;99.90
23160;DHT22;11748;50.844;4.396;2023-03-03T13:29:40;7.60;99.90
23160;DHT22;11748;50.844;4.396;2023-03-03T13:34:50;7.80;99.90
23160;DHT22;11748;50.844;4.396;2023-03-03T13:37:23;7.60;99.90
23160;DHT22;11748;50.844;4.396;2023-03-03T13:42:32;7.60;99.90
23160;DHT22;11748;50.844;4.396;2023-03-03T13:53:37;8.40;99.90
23160;DHT22;11748;50.844;4.396;2023-03-03T13:55:42;8.40;99.90
23160;DHT22;11748;50.844;4.396;2023-03-03T14:06:24;8.40;99.90
23160;DHT22;11748;50.844;4.396;2023-03-03T14:14:22;8.40;99.90
23160;DHT22;11748;50.844;4.396;2023-03-03T14:17:08;8.50;99.90
23160;DHT22;11748;50.844;4.396;2023-03-03T14:19:45;8.50;99.90
23160;DHT22;11748;50.844;4.396;2023-03-03T14:27:27;8.20;99.90
23160;DHT22;11748;50.844;4.396;2023-03-03T14:29:53;8.20;99.90
23160;DHT22;11748;50.844;4.396;2023-03-03T14:32:26;7.90;99.90
23160;DHT22;11748;50.844;4.396;2023-03-03T14:35:00;7.80;99.90
23160;DHT22;11748;50.844;4.396;2023-03-03T14:37:45;8.00;99.90
23160;DHT22;11748;50.844;4.396;2023-03-03T14:40:19;8.20;99.90
23160;DHT22;11748;50.844;4.396;2023-03-03T14:42:54;8.00;99.90
23160;DHT22;11748;50.844;4.396;2023-03-03T14:45:34;8.10;99.90
23160;DHT22;11748;50.844;4.396;2023-03-03T14:48:23;8.00;99.90
23160;DHT22;11748;50.844;4.396;2023-03-03T14:53:42;8.10;99.90
23160;DHT22;11748;50.844;4.396;2023-03-03T14:56:28;8.20;99.90
23160;DHT22;11748;50.844;4.396;2023-03-03T14:59:18;8.30;99.90
23160;DHT22;11748;50.844;4.396;2023-03-03T15:01:45;8.40;99.90
23160;DHT22;11748;50.844;4.396;2023-03-03T15:06:45;8.30;99.90
23160;DHT22;11748;50.844;4.396;2023-03-03T15:11:56;8.30;99.90
23160;DHT22;11748;50.844;4.396;2023-03-03T15:14:36;8.30;99.90
23160;DHT22;11748;50.844;4.396;2023-03-03T15:17:23;8.40;99.90
23160;DHT22;11748;50.844;4.396;2023-03-03T15:25:35;8.50;99.90
23160;DHT22;11748;50.844;4.396;2023-03-03T15:28:35;8.40;99.90
23160;DHT22;11748;50.844;4.396;2023-03-03T15:39:27;8.20;99.90
23160;DHT22;11748;50.844;4.396;2023-03-03T15:42:06;8.20;99.90
23160;DHT22;11748;50.844;4.396;2023-03-03T15:45:03;8.30;99.90
23160;DHT22;11748;50.844;4.396;2023-03-03T15:53:34;8.40;99.90
23160;DHT22;11748;50.844;4.396;2023-03-03T15:55:47;8.30;99.90
23160;DHT22;11748;50.844;4.396;2023-03-03T16:03:39;8.20;99.90
23160;DHT22;11748;50.844;4.396;2023-03-03T16:06:15;8.30;99.90
23160;DHT22;11748;50.844;4.396;2023-03-03T16:09:04;8.40;99.90
23160;DHT22;11748;50.844;4.396;2023-03-03T16:11:46;8.30;99.90
23160;DHT22;11748;50.844;4.396;2023-03-03T16:17:19;8.40;99.90
23160;DHT22;11748;50.844;4.396;2023-03-03T16:25:38;8.50;99.90
23160;DHT22;11748;50.844;4.396;2023-03-03T16:28:16;8.50;99.90
23160;DHT22;11748;50.844;4.396;2023-03-03T16:30:55;8.60;99.90
23160;DHT22;11748;50.844;4.396;2023-03-03T16:38:48;8.50;99.90
23160;DHT22;11748;50.844;4.396;2023-03-03T16:41:26;8.40;99.90
23160;DHT22;11748;50.844;4.396;2023-03-03T16:44:15;8.40;99.90
23160;DHT22;11748;50.844;4.396;2023-03-03T16:46:45;8.20;99.90
23160;DHT22;11748;50.844;4.396;2023-03-03T16:52:23;8.10;99.90
23160;DHT22;11748;50.844;4.396;2023-03-03T17:11:26;8.00;99.90
23160;DHT22;11748;50.844;4.396;2023-03-03T17:19:12;8.00;99.90
23160;DHT22;11748;50.844;4.396;2023-03-03T17:24:54;7.80;99.90
23160;DHT22;11748;50.844;4.396;2023-03-03T17:38:56;7.80;99.90
23160;DHT22;11748;50.844;4.396;2023-03-03T17:44:49;7.70;99.90
23160;DHT22;11748;50.844;4.396;2023-03-03T18:03:32;7.70;99.90
23160;DHT22;11748;50.844;4.396;2023-03-03T18:11:33;7.70;99.90
23160;DHT22;11748;50.844;4.396;2023-03-03T18:14:15;7.60;99.90
23160;DHT22;11748;50.844;4.396;2023-03-03T18:22:04;7.40;99.90
23160;DHT22;11748;50.844;4.396;2023-03-03T18:24:37;7.40;99.90
23160;DHT22;11748;50.844;4.396;2023-03-03T18:30:19;7.30;99.90
23160;DHT22;11748;50.844;4.396;2023-03-03T18:40:58;7.60;99.90
23160;DHT22;11748;50.844;4.396;2023-03-03T18:49:09;7.90;99.90
23160;DHT22;11748;50.844;4.396;2023-03-03T18:56:45;8.10;99.90
23160;DHT22;11748;50.844;4.396;2023-03-03T19:05:19;8.30;99.90
23160;DHT22;11748;50.844;4.396;2023-03-03T19:08:23;8.20;99.90
23160;DHT22;11748;50.844;4.396;2023-03-03T19:10:54;8.10;99.90
23160;DHT22;11748;50.844;4.396;2023-03-03T19:13:41;8.00;99.90
23160;DHT22;11748;50.844;4.396;2023-03-03T19:16:30;7.80;99.90
23160;DHT22;11748;50.844;4.396;2023-03-03T19:18:58;7.70;99.90
23160;DHT22;11748;50.844;4.396;2023-03-03T19:21:33;7.60;99.90
23160;DHT22;11748;50.844;4.396;2023-03-03T19:24:00;7.70;99.90
23160;DHT22;11748;50.844;4.396;2023-03-03T19:26:30;7.80;99.90
23160;DHT22;11748;50.844;4.396;2023-03-03T19:35:07;7.90;99.90
23160;DHT22;11748;50.844;4.396;2023-03-03T19:48:49;7.90;99.90
23160;DHT22;11748;50.844;4.396;2023-03-03T20:05:43;7.60;99.90
23160;DHT22;11748;50.844;4.396;2023-03-03T20:08:57;7.60;99.90
23160;DHT22;11748;50.844;4.396;2023-03-03T20:14:11;7.80;99.90
23160;DHT22;11748;50.844;4.396;2023-03-03T20:16:41;7.60;99.90
23160;DHT22;11748;50.844;4.396;2023-03-03T20:27:23;7.60;99.90
23160;DHT22;11748;50.844;4.396;2023-03-03T20:30:01;7.50;99.90
23160;DHT22;11748;50.844;4.396;2023-03-03T20:51:42;7.70;99.90
23160;DHT22;11748;50.844;4.396;2023-03-03T20:54:50;7.70;99.90
23160;DHT22;11748;50.844;4.396;2023-03-03T21:13:55;7.60;99.90
23160;DHT22;11748;50.844;4.396;2023-03-03T21:19:03;7.70;99.90
23160;DHT22;11748;50.844;4.396;2023-03-03T21:21:32;7.70;99.90
23160;DHT22;11748;50.844;4.396;2023-03-03T21:23:58;7.70;99.90
23160;DHT22;11748;50.844;4.396;2023-03-03T21:26:47;7.60;99.90
23160;DHT22;11748;50.844;4.396;2023-03-03T21:32:07;7.70;99.90
23160;DHT22;11748;50.844;4.396;2023-03-03T21:34:36;7.80;99.90
23160;DHT22;11748;50.844;4.396;2023-03-03T21:37:08;7.70;99.90
23160;DHT22;11748;50.844;4.396;2023-03-03T21:39:39;7.80;99.90
23160;DHT22;11748;50.844;4.396;2023-03-03T21:42:06;7.80;99.90
23160;DHT22;11748;50.844;4.396;2023-03-03T21:44:44;7.90;99.90
23160;DHT22;11748;50.844;4.396;2023-03-03T21:47:21;7.80;99.90
23160;DHT22;11748;50.844;4.396;2023-03-03T21:49:49;7.50;99.90
23160;DHT22;11748;50.844;4.396;2023-03-03T21:52:19;7.60;99.90
23160;DHT22;11748;50.844;4.396;2023-03-03T21:54:46;7.60;99.90
23160;DHT22;11748;50.844;4.396;2023-03-03T21:57:12;7.50;99.90
23160;DHT22;11748;50.844;4.396;2023-03-03T21:59:38;7.40;99.90
23160;DHT22;11748;50.844;4.396;2023-03-03T22:02:05;7.50;99.90
23160;DHT22;11748;50.844;4.396;2023-03-03T22:04:31;7.60;99.90
23160;DHT22;11748;50.844;4.396;2023-03-03T22:06:57;7.70;99.90
23160;DHT22;11748;50.844;4.396;2023-03-03T22:09:23;7.50;99.90
23160;DHT22;11748;50.844;4.396;2023-03-03T22:11:48;7.40;99.90
23160;DHT22;11748;50.844;4.396;2023-03-03T22:14:14;7.40;99.90
23160;DHT22;11748;50.844;4.396;2023-03-03T22:16:42;7.40;99.90
23160;DHT22;11748;50.844;4.396;2023-03-03T22:19:08;7.50;99.90
23160;DHT22;11748;50.844;4.396;2023-03-03T22:21:35;7.60;99.90
23160;DHT22;11748;50.844;4.396;2023-03-03T22:24:01;7.60;99.90
23160;DHT22;11748;50.844;4.396;2023-03-03T22:26:27;7.80;99.90
23160;DHT22;11748;50.844;4.396;2023-03-03T22:28:52;7.90;99.90
23160;DHT22;11748;50.844;4.396;2023-03-03T22:31:18;7.60;99.90
23160;DHT22;11748;50.844;4.396;2023-03-03T22:33:47;7.50;99.90
23160;DHT22;11748;50.844;4.396;2023-03-03T22:36:13;7.50;99.90
23160;DHT22;11748;50.844;4.396;2023-03-03T22:38:39;7.40;99.90
23160;DHT22;11748;50.844;4.396;2023-03-03T22:41:05;7.50;99.90
23160;DHT22;11748;50.844;4.396;2023-03-03T22:43:31;7.50;99.90
23160;DHT22;11748;50.844;4.396;2023-03-03T22:45:58;7.40;99.90
23160;DHT22;11748;50.844;4.396;2023-03-03T22:48:25;7.30;99.90
23160;DHT22;11748;50.844;4.396;2023-03-03T22:50:52;7.40;99.90
23160;DHT22;11748;50.844;4.396;2023-03-03T22:53:18;7.60;99.90
23160;DHT22;11748;50.844;4.396;2023-03-03T22:55:44;7.80;99.90
23160;DHT22;11748;50.844;4.396;2023-03-03T22:58:11;7.70;99.90
23160;DHT22;11748;50.844;4.396;2023-03-03T23:00:36;7.60;99.90
23160;DHT22;11748;50.844;4.396;2023-03-03T23:03:05;7.70;99.90
23160;DHT22;11748;50.844;4.396;2023-03-03T23:05:31;7.70;99.90
23160;DHT22;11748;50.844;4.396;2023-03-03T23:07:57;7.30;99.90
23160;DHT22;11748;50.844;4.396;2023-03-03T23:10:23;7.40;99.90
23160;DHT22;11748;50.844;4.396;2023-03-03T23:12:49;7.50;99.90
23160;DHT22;11748;50.844;4.396;2023-03-03T23:15:15;7.60;99.90
23160;DHT22;11748;50.844;4.396;2023-03-03T23:17:42;7.50;99.90